sensor_id;sensor_type;location;lat;lon;timestamp;P1;durP1;ratioP1;P2;durP2;ratioP2
19595;SDS011;9945;46.010;8.946;2023-05-15T00:01:35;1.83;;;1.73;;
19595;SDS011;9945;46.010;8.946;2023-05-15T00:04:02;3.45;;;1.83;;
19595;SDS011;9945;46.010;8.946;2023-05-15T00:06:29;3.80;;;2.10;;
19595;SDS011;9945;46.010;8.946;2023-05-15T00:08:56;2.30;;;1.80;;
19595;SDS011;9945;46.010;8.946;2023-05-15T00:11:24;2.15;;;1.80;;
19595;SDS011;9945;46.010;8.946;2023-05-15T00:13:52;2.45;;;2.28;;
19595;SDS011;9945;46.010;8.946;2023-05-15T00:16:18;2.20;;;2.00;;
19595;SDS011;9945;46.010;8.946;2023-05-15T00:18:45;2.00;;;1.90;;
19595;SDS011;9945;46.010;8.946;2023-05-15T00:21:12;5.18;;;1.90;;
19595;SDS011;9945;46.010;8.946;2023-05-15T00:23:39;1.88;;;1.77;;
19595;SDS011;9945;46.010;8.946;2023-05-15T00:26:06;3.70;;;1.73;;
19595;SDS011;9945;46.010;8.946;2023-05-15T00:28:34;3.00;;;2.17;;
19595;SDS011;9945;46.010;8.946;2023-05-15T00:31:01;2.85;;;2.13;;
19595;SDS011;9945;46.010;8.946;2023-05-15T00:33:27;4.95;;;2.35;;
19595;SDS011;9945;46.010;8.946;2023-05-15T00:35:55;2.92;;;1.90;;
19595;SDS011;9945;46.010;8.946;2023-05-15T00:38:22;1.80;;;1.70;;
19595;SDS011;9945;46.010;8.946;2023-05-15T00:40:48;3.63;;;1.60;;
19595;SDS011;9945;46.010;8.946;2023-05-15T00:43:17;2.38;;;1.60;;
19595;SDS011;9945;46.010;8.946;2023-05-15T00:45:45;1.88;;;1.67;;
19595;SDS011;9945;46.010;8.946;2023-05-15T00:48:13;3.17;;;1.80;;
19595;SDS011;9945;46.010;8.946;2023-05-15T00:50:41;2.25;;;1.65;;
19595;SDS011;9945;46.010;8.946;2023-05-15T00:53:09;1.85;;;1.75;;
19595;SDS011;9945;46.010;8.946;2023-05-15T00:55:36;2.40;;;1.88;;
19595;SDS011;9945;46.010;8.946;2023-05-15T00:58:04;2.28;;;2.08;;
19595;SDS011;9945;46.010;8.946;2023-05-15T01:00:32;2.95;;;2.10;;
19595;SDS011;9945;46.010;8.946;2023-05-15T01:03:01;5.25;;;2.28;;
19595;SDS011;9945;46.010;8.946;2023-05-15T01:05:28;2.78;;;2.17;;
19595;SDS011;9945;46.010;8.946;2023-05-15T01:07:55;2.45;;;2.13;;
19595;SDS011;9945;46.010;8.946;2023-05-15T01:10:32;3.42;;;1.90;;
19595;SDS011;9945;46.010;8.946;2023-05-15T01:13:00;2.20;;;2.10;;
19595;SDS011;9945;46.010;8.946;2023-05-15T01:15:28;4.55;;;1.85;;
19595;SDS011;9945;46.010;8.946;2023-05-15T01:17:55;2.85;;;2.40;;
19595;SDS011;9945;46.010;8.946;2023-05-15T01:20:23;2.40;;;2.20;;
19595;SDS011;9945;46.010;8.946;2023-05-15T01:22:58;2.38;;;2.20;;
19595;SDS011;9945;46.010;8.946;2023-05-15T01:28:35;2.20;;;2.00;;
19595;SDS011;9945;46.010;8.946;2023-05-15T01:31:08;3.10;;;2.45;;
19595;SDS011;9945;46.010;8.946;2023-05-15T01:33:42;2.28;;;2.08;;
19595;SDS011;9945;46.010;8.946;2023-05-15T01:36:13;3.42;;;1.90;;
19595;SDS011;9945;46.010;8.946;2023-05-15T01:38:45;2.55;;;1.55;;
19595;SDS011;9945;46.010;8.946;2023-05-15T01:41:18;5.60;;;2.05;;
19595;SDS011;9945;46.010;8.946;2023-05-15T01:43:51;1.83;;;1.77;;
19595;SDS011;9945;46.010;8.946;2023-05-15T01:46:24;2.35;;;1.60;;
19595;SDS011;9945;46.010;8.946;2023-05-15T01:48:55;1.75;;;1.65;;
19595;SDS011;9945;46.010;8.946;2023-05-15T01:51:26;1.90;;;1.80;;
19595;SDS011;9945;46.010;8.946;2023-05-15T01:53:54;2.72;;;1.90;;
19595;SDS011;9945;46.010;8.946;2023-05-15T01:56:24;2.28;;;1.85;;
19595;SDS011;9945;46.010;8.946;2023-05-15T01:58:54;2.10;;;1.83;;
19595;SDS011;9945;46.010;8.946;2023-05-15T02:01:24;2.05;;;1.88;;
19595;SDS011;9945;46.010;8.946;2023-05-15T02:03:51;3.10;;;1.52;;
19595;SDS011;9945;46.010;8.946;2023-05-15T02:06:20;1.85;;;1.75;;
19595;SDS011;9945;46.010;8.946;2023-05-15T02:08:47;1.63;;;1.52;;
19595;SDS011;9945;46.010;8.946;2023-05-15T02:11:16;1.42;;;1.40;;
19595;SDS011;9945;46.010;8.946;2023-05-15T02:13:43;2.60;;;1.40;;
19595;SDS011;9945;46.010;8.946;2023-05-15T02:16:11;1.38;;;1.38;;
19595;SDS011;9945;46.010;8.946;2023-05-15T02:18:38;1.85;;;1.40;;
19595;SDS011;9945;46.010;8.946;2023-05-15T02:21:05;1.55;;;1.48;;
19595;SDS011;9945;46.010;8.946;2023-05-15T02:23:32;1.50;;;1.40;;
19595;SDS011;9945;46.010;8.946;2023-05-15T02:26:02;3.92;;;1.58;;
19595;SDS011;9945;46.010;8.946;2023-05-15T02:31:25;1.45;;;1.45;;
19595;SDS011;9945;46.010;8.946;2023-05-15T02:34:01;4.13;;;1.50;;
19595;SDS011;9945;46.010;8.946;2023-05-15T02:36:39;2.33;;;1.35;;
19595;SDS011;9945;46.010;8.946;2023-05-15T02:39:10;1.85;;;1.42;;
19595;SDS011;9945;46.010;8.946;2023-05-15T02:41:38;1.50;;;1.40;;
19595;SDS011;9945;46.010;8.946;2023-05-15T02:44:05;2.03;;;1.65;;
19595;SDS011;9945;46.010;8.946;2023-05-15T02:46:34;1.98;;;1.88;;
19595;SDS011;9945;46.010;8.946;2023-05-15T02:49:02;1.70;;;1.60;;
19595;SDS011;9945;46.010;8.946;2023-05-15T02:51:30;1.60;;;1.40;;
19595;SDS011;9945;46.010;8.946;2023-05-15T02:53:58;2.17;;;1.83;;
19595;SDS011;9945;46.010;8.946;2023-05-15T02:56:26;1.88;;;1.77;;
19595;SDS011;9945;46.010;8.946;2023-05-15T02:58:53;2.47;;;1.58;;
19595;SDS011;9945;46.010;8.946;2023-05-15T03:01:20;3.95;;;1.42;;
19595;SDS011;9945;46.010;8.946;2023-05-15T03:03:48;1.73;;;1.38;;
19595;SDS011;9945;46.010;8.946;2023-05-15T03:06:15;1.77;;;1.67;;
19595;SDS011;9945;46.010;8.946;2023-05-15T03:08:42;2.95;;;1.38;;
19595;SDS011;9945;46.010;8.946;2023-05-15T03:11:09;1.60;;;1.42;;
19595;SDS011;9945;46.010;8.946;2023-05-15T03:13:36;2.05;;;1.90;;
19595;SDS011;9945;46.010;8.946;2023-05-15T03:16:03;1.80;;;1.70;;
19595;SDS011;9945;46.010;8.946;2023-05-15T03:18:30;1.98;;;1.55;;
19595;SDS011;9945;46.010;8.946;2023-05-15T03:20:58;1.48;;;1.38;;
19595;SDS011;9945;46.010;8.946;2023-05-15T03:23:25;4.68;;;1.63;;
19595;SDS011;9945;46.010;8.946;2023-05-15T03:25:52;2.03;;;1.90;;
19595;SDS011;9945;46.010;8.946;2023-05-15T03:28:19;2.13;;;1.60;;
19595;SDS011;9945;46.010;8.946;2023-05-15T03:30:46;2.72;;;1.42;;
19595;SDS011;9945;46.010;8.946;2023-05-15T03:33:12;1.73;;;1.42;;
19595;SDS011;9945;46.010;8.946;2023-05-15T03:35:39;2.08;;;1.50;;
19595;SDS011;9945;46.010;8.946;2023-05-15T03:38:08;1.52;;;1.20;;
19595;SDS011;9945;46.010;8.946;2023-05-15T03:40:36;4.93;;;1.35;;
19595;SDS011;9945;46.010;8.946;2023-05-15T03:43:03;1.70;;;1.60;;
19595;SDS011;9945;46.010;8.946;2023-05-15T03:45:31;1.10;;;1.10;;
19595;SDS011;9945;46.010;8.946;2023-05-15T03:47:58;1.35;;;1.25;;
19595;SDS011;9945;46.010;8.946;2023-05-15T03:50:25;6.22;;;1.38;;
19595;SDS011;9945;46.010;8.946;2023-05-15T03:52:52;2.28;;;2.08;;
19595;SDS011;9945;46.010;8.946;2023-05-15T03:55:20;2.17;;;1.80;;
19595;SDS011;9945;46.010;8.946;2023-05-15T03:57:47;3.60;;;1.90;;
19595;SDS011;9945;46.010;8.946;2023-05-15T04:00:14;2.30;;;1.50;;
19595;SDS011;9945;46.010;8.946;2023-05-15T04:02:42;1.38;;;1.30;;
19595;SDS011;9945;46.010;8.946;2023-05-15T04:05:09;1.70;;;1.45;;
19595;SDS011;9945;46.010;8.946;2023-05-15T04:07:36;6.15;;;1.50;;
19595;SDS011;9945;46.010;8.946;2023-05-15T04:10:03;1.75;;;1.45;;
19595;SDS011;9945;46.010;8.946;2023-05-15T04:12:33;2.20;;;1.70;;
19595;SDS011;9945;46.010;8.946;2023-05-15T04:15:12;1.48;;;1.38;;
19595;SDS011;9945;46.010;8.946;2023-05-15T04:17:39;6.38;;;1.52;;
19595;SDS011;9945;46.010;8.946;2023-05-15T04:20:06;2.15;;;1.30;;
19595;SDS011;9945;46.010;8.946;2023-05-15T04:22:35;1.90;;;1.55;;
19595;SDS011;9945;46.010;8.946;2023-05-15T04:25:02;1.90;;;1.45;;
19595;SDS011;9945;46.010;8.946;2023-05-15T04:27:29;2.85;;;1.50;;
19595;SDS011;9945;46.010;8.946;2023-05-15T04:29:58;1.65;;;1.55;;
19595;SDS011;9945;46.010;8.946;2023-05-15T04:32:26;5.07;;;1.67;;
19595;SDS011;9945;46.010;8.946;2023-05-15T04:34:54;1.95;;;1.80;;
19595;SDS011;9945;46.010;8.946;2023-05-15T04:37:20;2.38;;;1.60;;
19595;SDS011;9945;46.010;8.946;2023-05-15T04:39:47;4.38;;;2.03;;
19595;SDS011;9945;46.010;8.946;2023-05-15T04:42:15;1.98;;;1.75;;
19595;SDS011;9945;46.010;8.946;2023-05-15T04:44:43;3.67;;;1.70;;
19595;SDS011;9945;46.010;8.946;2023-05-15T04:47:09;1.95;;;1.70;;
19595;SDS011;9945;46.010;8.946;2023-05-15T04:49:36;1.70;;;1.60;;
19595;SDS011;9945;46.010;8.946;2023-05-15T04:52:03;1.52;;;1.42;;
19595;SDS011;9945;46.010;8.946;2023-05-15T04:54:30;1.65;;;1.55;;
19595;SDS011;9945;46.010;8.946;2023-05-15T04:56:57;1.50;;;1.50;;
19595;SDS011;9945;46.010;8.946;2023-05-15T04:59:24;2.25;;;1.33;;
19595;SDS011;9945;46.010;8.946;2023-05-15T05:01:54;1.73;;;1.52;;
19595;SDS011;9945;46.010;8.946;2023-05-15T05:04:21;2.85;;;2.10;;
19595;SDS011;9945;46.010;8.946;2023-05-15T05:06:48;5.13;;;1.98;;
19595;SDS011;9945;46.010;8.946;2023-05-15T05:09:14;1.95;;;1.85;;
19595;SDS011;9945;46.010;8.946;2023-05-15T05:11:44;1.20;;;1.20;;
19595;SDS011;9945;46.010;8.946;2023-05-15T05:14:12;3.30;;;1.80;;
19595;SDS011;9945;46.010;8.946;2023-05-15T05:16:40;3.08;;;1.50;;
19595;SDS011;9945;46.010;8.946;2023-05-15T05:19:08;3.85;;;1.65;;
19595;SDS011;9945;46.010;8.946;2023-05-15T05:21:35;1.90;;;1.80;;
19595;SDS011;9945;46.010;8.946;2023-05-15T05:24:02;2.00;;;1.75;;
19595;SDS011;9945;46.010;8.946;2023-05-15T05:26:29;3.50;;;1.98;;
19595;SDS011;9945;46.010;8.946;2023-05-15T05:28:56;2.08;;;1.77;;
19595;SDS011;9945;46.010;8.946;2023-05-15T05:31:23;2.17;;;1.98;;
19595;SDS011;9945;46.010;8.946;2023-05-15T05:33:49;1.67;;;1.58;;
19595;SDS011;9945;46.010;8.946;2023-05-15T05:36:18;3.17;;;1.90;;
19595;SDS011;9945;46.010;8.946;2023-05-15T05:38:44;4.05;;;1.90;;
19595;SDS011;9945;46.010;8.946;2023-05-15T05:41:11;9.25;;;2.00;;
19595;SDS011;9945;46.010;8.946;2023-05-15T05:43:38;1.33;;;1.33;;
19595;SDS011;9945;46.010;8.946;2023-05-15T05:46:05;2.00;;;1.90;;
19595;SDS011;9945;46.010;8.946;2023-05-15T05:48:32;2.40;;;2.20;;
19595;SDS011;9945;46.010;8.946;2023-05-15T05:50:58;2.10;;;1.80;;
19595;SDS011;9945;46.010;8.946;2023-05-15T05:53:27;3.03;;;2.20;;
19595;SDS011;9945;46.010;8.946;2023-05-15T05:55:53;2.13;;;2.03;;
19595;SDS011;9945;46.010;8.946;2023-05-15T05:58:20;2.20;;;2.08;;
19595;SDS011;9945;46.010;8.946;2023-05-15T06:00:47;2.08;;;1.50;;
19595;SDS011;9945;46.010;8.946;2023-05-15T06:03:14;2.10;;;1.90;;
19595;SDS011;9945;46.010;8.946;2023-05-15T06:05:41;1.63;;;1.52;;
19595;SDS011;9945;46.010;8.946;2023-05-15T06:08:08;1.30;;;1.20;;
19595;SDS011;9945;46.010;8.946;2023-05-15T06:10:36;2.08;;;1.40;;
19595;SDS011;9945;46.010;8.946;2023-05-15T06:13:04;1.63;;;1.52;;
19595;SDS011;9945;46.010;8.946;2023-05-15T06:15:30;1.70;;;1.60;;
19595;SDS011;9945;46.010;8.946;2023-05-15T06:17:58;2.22;;;1.77;;
19595;SDS011;9945;46.010;8.946;2023-05-15T06:20:25;1.75;;;1.40;;
19595;SDS011;9945;46.010;8.946;2023-05-15T06:22:52;3.60;;;1.70;;
19595;SDS011;9945;46.010;8.946;2023-05-15T06:25:19;2.53;;;1.85;;
19595;SDS011;9945;46.010;8.946;2023-05-15T06:27:47;1.70;;;1.60;;
19595;SDS011;9945;46.010;8.946;2023-05-15T06:30:14;1.90;;;1.80;;
19595;SDS011;9945;46.010;8.946;2023-05-15T06:32:41;4.70;;;1.80;;
19595;SDS011;9945;46.010;8.946;2023-05-15T06:35:08;1.77;;;1.52;;
19595;SDS011;9945;46.010;8.946;2023-05-15T06:37:35;5.25;;;1.60;;
19595;SDS011;9945;46.010;8.946;2023-05-15T06:40:03;2.30;;;1.58;;
19595;SDS011;9945;46.010;8.946;2023-05-15T06:42:31;1.60;;;1.17;;
19595;SDS011;9945;46.010;8.946;2023-05-15T06:44:59;3.17;;;1.50;;
19595;SDS011;9945;46.010;8.946;2023-05-15T06:47:26;3.70;;;1.90;;
19595;SDS011;9945;46.010;8.946;2023-05-15T06:49:52;3.00;;;1.70;;
19595;SDS011;9945;46.010;8.946;2023-05-15T06:52:19;2.85;;;1.60;;
19595;SDS011;9945;46.010;8.946;2023-05-15T06:54:46;1.80;;;1.50;;
19595;SDS011;9945;46.010;8.946;2023-05-15T06:57:14;4.22;;;1.77;;
19595;SDS011;9945;46.010;8.946;2023-05-15T06:59:40;4.95;;;1.60;;
19595;SDS011;9945;46.010;8.946;2023-05-15T07:02:09;2.15;;;1.50;;
19595;SDS011;9945;46.010;8.946;2023-05-15T07:04:35;2.97;;;1.30;;
19595;SDS011;9945;46.010;8.946;2023-05-15T07:07:02;1.35;;;1.23;;
19595;SDS011;9945;46.010;8.946;2023-05-15T07:09:30;2.65;;;1.38;;
19595;SDS011;9945;46.010;8.946;2023-05-15T07:11:57;1.80;;;1.52;;
19595;SDS011;9945;46.010;8.946;2023-05-15T07:14:24;2.67;;;1.90;;
19595;SDS011;9945;46.010;8.946;2023-05-15T07:16:50;2.85;;;1.75;;
19595;SDS011;9945;46.010;8.946;2023-05-15T07:19:18;1.95;;;1.85;;
19595;SDS011;9945;46.010;8.946;2023-05-15T07:21:46;4.05;;;1.60;;
19595;SDS011;9945;46.010;8.946;2023-05-15T07:24:12;2.72;;;1.42;;
19595;SDS011;9945;46.010;8.946;2023-05-15T07:26:39;1.67;;;1.58;;
19595;SDS011;9945;46.010;8.946;2023-05-15T07:29:06;7.30;;;2.42;;
19595;SDS011;9945;46.010;8.946;2023-05-15T07:31:33;3.13;;;1.65;;
19595;SDS011;9945;46.010;8.946;2023-05-15T07:34:00;2.00;;;1.70;;
19595;SDS011;9945;46.010;8.946;2023-05-15T07:36:28;2.55;;;1.60;;
19595;SDS011;9945;46.010;8.946;2023-05-15T07:38:55;1.13;;;1.13;;
19595;SDS011;9945;46.010;8.946;2023-05-15T07:41:22;1.60;;;1.50;;
19595;SDS011;9945;46.010;8.946;2023-05-15T07:43:49;1.25;;;1.23;;
19595;SDS011;9945;46.010;8.946;2023-05-15T07:46:16;3.83;;;1.27;;
19595;SDS011;9945;46.010;8.946;2023-05-15T07:48:42;2.50;;;1.27;;
19595;SDS011;9945;46.010;8.946;2023-05-15T07:51:09;1.48;;;1.30;;
19595;SDS011;9945;46.010;8.946;2023-05-15T07:53:37;1.92;;;1.40;;
19595;SDS011;9945;46.010;8.946;2023-05-15T07:56:04;3.42;;;1.60;;
19595;SDS011;9945;46.010;8.946;2023-05-15T07:58:31;3.05;;;1.83;;
19595;SDS011;9945;46.010;8.946;2023-05-15T08:00:59;3.55;;;1.63;;
19595;SDS011;9945;46.010;8.946;2023-05-15T08:03:26;1.40;;;1.40;;
19595;SDS011;9945;46.010;8.946;2023-05-15T08:05:53;1.60;;;1.50;;
19595;SDS011;9945;46.010;8.946;2023-05-15T08:08:20;2.40;;;1.58;;
19595;SDS011;9945;46.010;8.946;2023-05-15T08:10:48;1.55;;;1.45;;
19595;SDS011;9945;46.010;8.946;2023-05-15T08:13:15;1.45;;;1.20;;
19595;SDS011;9945;46.010;8.946;2023-05-15T08:15:41;1.27;;;1.17;;
19595;SDS011;9945;46.010;8.946;2023-05-15T08:18:08;4.07;;;1.50;;
19595;SDS011;9945;46.010;8.946;2023-05-15T08:20:36;3.10;;;2.90;;
19595;SDS011;9945;46.010;8.946;2023-05-15T08:23:03;4.07;;;2.00;;
19595;SDS011;9945;46.010;8.946;2023-05-15T08:25:29;4.63;;;1.42;;
19595;SDS011;9945;46.010;8.946;2023-05-15T08:27:58;1.10;;;1.00;;
19595;SDS011;9945;46.010;8.946;2023-05-15T08:30:25;2.20;;;1.42;;
19595;SDS011;9945;46.010;8.946;2023-05-15T08:32:51;1.27;;;0.95;;
19595;SDS011;9945;46.010;8.946;2023-05-15T08:35:18;2.35;;;1.00;;
19595;SDS011;9945;46.010;8.946;2023-05-15T08:37:45;4.40;;;0.82;;
19595;SDS011;9945;46.010;8.946;2023-05-15T08:40:12;3.30;;;0.90;;
19595;SDS011;9945;46.010;8.946;2023-05-15T08:42:41;0.57;;;0.57;;
19595;SDS011;9945;46.010;8.946;2023-05-15T08:45:11;4.00;;;0.70;;
19595;SDS011;9945;46.010;8.946;2023-05-15T08:47:39;1.45;;;1.35;;
19595;SDS011;9945;46.010;8.946;2023-05-15T08:50:08;0.60;;;0.60;;
19595;SDS011;9945;46.010;8.946;2023-05-15T08:52:39;0.63;;;0.63;;
19595;SDS011;9945;46.010;8.946;2023-05-15T08:55:07;0.50;;;0.50;;
19595;SDS011;9945;46.010;8.946;2023-05-15T08:57:34;0.50;;;0.50;;
19595;SDS011;9945;46.010;8.946;2023-05-15T09:00:03;2.10;;;0.70;;
19595;SDS011;9945;46.010;8.946;2023-05-15T09:02:34;0.20;;;0.20;;
19595;SDS011;9945;46.010;8.946;2023-05-15T09:05:02;0.40;;;0.40;;
19595;SDS011;9945;46.010;8.946;2023-05-15T09:07:30;0.50;;;0.50;;
19595;SDS011;9945;46.010;8.946;2023-05-15T09:09:58;0.50;;;0.50;;
19595;SDS011;9945;46.010;8.946;2023-05-15T09:12:26;0.50;;;0.50;;
19595;SDS011;9945;46.010;8.946;2023-05-15T09:15:06;0.52;;;0.52;;
19595;SDS011;9945;46.010;8.946;2023-05-15T09:17:36;0.45;;;0.45;;
19595;SDS011;9945;46.010;8.946;2023-05-15T09:20:03;0.77;;;0.77;;
19595;SDS011;9945;46.010;8.946;2023-05-15T09:22:33;0.50;;;0.50;;
19595;SDS011;9945;46.010;8.946;2023-05-15T09:25:00;0.47;;;0.47;;
19595;SDS011;9945;46.010;8.946;2023-05-15T09:27:28;0.90;;;0.43;;
19595;SDS011;9945;46.010;8.946;2023-05-15T09:29:55;0.60;;;0.60;;
19595;SDS011;9945;46.010;8.946;2023-05-15T09:32:35;2.22;;;0.70;;
19595;SDS011;9945;46.010;8.946;2023-05-15T09:35:03;0.50;;;0.50;;
19595;SDS011;9945;46.010;8.946;2023-05-15T09:37:56;0.50;;;0.50;;
19595;SDS011;9945;46.010;8.946;2023-05-15T09:40:25;0.40;;;0.40;;
19595;SDS011;9945;46.010;8.946;2023-05-15T09:42:54;0.98;;;0.60;;
19595;SDS011;9945;46.010;8.946;2023-05-15T09:45:22;1.27;;;0.70;;
19595;SDS011;9945;46.010;8.946;2023-05-15T09:47:52;0.40;;;0.40;;
19595;SDS011;9945;46.010;8.946;2023-05-15T09:50:19;0.50;;;0.50;;
19595;SDS011;9945;46.010;8.946;2023-05-15T09:52:48;0.40;;;0.40;;
19595;SDS011;9945;46.010;8.946;2023-05-15T09:55:15;0.60;;;0.60;;
19595;SDS011;9945;46.010;8.946;2023-05-15T09:57:44;0.60;;;0.60;;
19595;SDS011;9945;46.010;8.946;2023-05-15T10:00:11;0.40;;;0.40;;
19595;SDS011;9945;46.010;8.946;2023-05-15T10:02:39;0.60;;;0.60;;
19595;SDS011;9945;46.010;8.946;2023-05-15T10:05:08;1.08;;;0.55;;
19595;SDS011;9945;46.010;8.946;2023-05-15T10:07:37;0.75;;;0.60;;
19595;SDS011;9945;46.010;8.946;2023-05-15T10:10:04;0.43;;;0.40;;
19595;SDS011;9945;46.010;8.946;2023-05-15T10:12:32;1.00;;;0.55;;
19595;SDS011;9945;46.010;8.946;2023-05-15T10:15:01;1.50;;;0.77;;
19595;SDS011;9945;46.010;8.946;2023-05-15T10:17:29;4.78;;;0.60;;
19595;SDS011;9945;46.010;8.946;2023-05-15T10:19:58;0.70;;;0.70;;
19595;SDS011;9945;46.010;8.946;2023-05-15T10:22:28;0.68;;;0.68;;
19595;SDS011;9945;46.010;8.946;2023-05-15T10:24:59;0.82;;;0.50;;
19595;SDS011;9945;46.010;8.946;2023-05-15T10:27:28;0.60;;;0.60;;
19595;SDS011;9945;46.010;8.946;2023-05-15T10:29:56;0.60;;;0.60;;
19595;SDS011;9945;46.010;8.946;2023-05-15T10:32:24;0.60;;;0.60;;
19595;SDS011;9945;46.010;8.946;2023-05-15T10:34:52;1.17;;;0.70;;
19595;SDS011;9945;46.010;8.946;2023-05-15T10:37:19;0.50;;;0.50;;
19595;SDS011;9945;46.010;8.946;2023-05-15T10:39:48;0.82;;;0.80;;
19595;SDS011;9945;46.010;8.946;2023-05-15T10:42:20;1.55;;;0.73;;
19595;SDS011;9945;46.010;8.946;2023-05-15T10:44:48;0.77;;;0.77;;
19595;SDS011;9945;46.010;8.946;2023-05-15T10:47:16;0.70;;;0.70;;
19595;SDS011;9945;46.010;8.946;2023-05-15T10:49:42;0.60;;;0.60;;
19595;SDS011;9945;46.010;8.946;2023-05-15T10:52:09;0.70;;;0.70;;
19595;SDS011;9945;46.010;8.946;2023-05-15T10:54:36;0.80;;;0.80;;
19595;SDS011;9945;46.010;8.946;2023-05-15T10:57:05;0.70;;;0.70;;
19595;SDS011;9945;46.010;8.946;2023-05-15T10:59:32;0.80;;;0.80;;
19595;SDS011;9945;46.010;8.946;2023-05-15T11:04:45;0.75;;;0.75;;
19595;SDS011;9945;46.010;8.946;2023-05-15T11:07:13;0.55;;;0.55;;
19595;SDS011;9945;46.010;8.946;2023-05-15T11:09:42;0.65;;;0.63;;
19595;SDS011;9945;46.010;8.946;2023-05-15T11:12:10;0.60;;;0.60;;
19595;SDS011;9945;46.010;8.946;2023-05-15T11:14:38;0.70;;;0.70;;
19595;SDS011;9945;46.010;8.946;2023-05-15T11:17:08;0.88;;;0.73;;
19595;SDS011;9945;46.010;8.946;2023-05-15T11:19:36;0.80;;;0.80;;
19595;SDS011;9945;46.010;8.946;2023-05-15T11:22:20;0.73;;;0.73;;
19595;SDS011;9945;46.010;8.946;2023-05-15T11:24:50;0.50;;;0.50;;
19595;SDS011;9945;46.010;8.946;2023-05-15T11:27:21;0.88;;;0.88;;
19595;SDS011;9945;46.010;8.946;2023-05-15T11:30:05;0.60;;;0.60;;
19595;SDS011;9945;46.010;8.946;2023-05-15T11:32:49;1.65;;;0.70;;
19595;SDS011;9945;46.010;8.946;2023-05-15T11:35:20;0.80;;;0.80;;
19595;SDS011;9945;46.010;8.946;2023-05-15T11:37:49;0.70;;;0.70;;
19595;SDS011;9945;46.010;8.946;2023-05-15T11:40:18;0.77;;;0.77;;
19595;SDS011;9945;46.010;8.946;2023-05-15T11:45:32;2.10;;;0.90;;
19595;SDS011;9945;46.010;8.946;2023-05-15T11:48:01;0.63;;;0.63;;
19595;SDS011;9945;46.010;8.946;2023-05-15T11:50:30;1.55;;;0.98;;
19595;SDS011;9945;46.010;8.946;2023-05-15T11:53:00;1.10;;;1.10;;
19595;SDS011;9945;46.010;8.946;2023-05-15T11:55:29;1.75;;;0.90;;
19595;SDS011;9945;46.010;8.946;2023-05-15T11:57:57;1.27;;;0.80;;
19595;SDS011;9945;46.010;8.946;2023-05-15T12:00:26;0.95;;;0.95;;
19595;SDS011;9945;46.010;8.946;2023-05-15T12:02:53;0.80;;;0.80;;
19595;SDS011;9945;46.010;8.946;2023-05-15T12:05:20;1.05;;;1.05;;
19595;SDS011;9945;46.010;8.946;2023-05-15T12:07:47;2.33;;;1.10;;
19595;SDS011;9945;46.010;8.946;2023-05-15T12:10:14;1.42;;;0.90;;
19595;SDS011;9945;46.010;8.946;2023-05-15T12:12:41;0.75;;;0.75;;
19595;SDS011;9945;46.010;8.946;2023-05-15T12:15:10;1.75;;;0.70;;
19595;SDS011;9945;46.010;8.946;2023-05-15T12:17:39;1.00;;;1.00;;
19595;SDS011;9945;46.010;8.946;2023-05-15T12:20:07;0.80;;;0.80;;
19595;SDS011;9945;46.010;8.946;2023-05-15T12:22:36;0.85;;;0.70;;
19595;SDS011;9945;46.010;8.946;2023-05-15T12:25:04;0.70;;;0.70;;
19595;SDS011;9945;46.010;8.946;2023-05-15T12:27:32;0.77;;;0.77;;
19595;SDS011;9945;46.010;8.946;2023-05-15T12:30:00;1.48;;;0.73;;
19595;SDS011;9945;46.010;8.946;2023-05-15T12:32:29;0.60;;;0.60;;
19595;SDS011;9945;46.010;8.946;2023-05-15T12:34:58;0.73;;;0.73;;
19595;SDS011;9945;46.010;8.946;2023-05-15T12:37:26;0.80;;;0.80;;
19595;SDS011;9945;46.010;8.946;2023-05-15T12:40:00;0.70;;;0.70;;
19595;SDS011;9945;46.010;8.946;2023-05-15T12:42:28;0.60;;;0.60;;
19595;SDS011;9945;46.010;8.946;2023-05-15T12:44:56;0.60;;;0.60;;
19595;SDS011;9945;46.010;8.946;2023-05-15T12:47:23;2.78;;;0.65;;
19595;SDS011;9945;46.010;8.946;2023-05-15T12:49:54;1.70;;;0.80;;
19595;SDS011;9945;46.010;8.946;2023-05-15T12:52:22;1.75;;;0.95;;
19595;SDS011;9945;46.010;8.946;2023-05-15T12:54:53;0.70;;;0.70;;
19595;SDS011;9945;46.010;8.946;2023-05-15T12:57:21;3.17;;;0.80;;
19595;SDS011;9945;46.010;8.946;2023-05-15T12:59:49;1.30;;;0.90;;
19595;SDS011;9945;46.010;8.946;2023-05-15T13:02:16;0.85;;;0.85;;
19595;SDS011;9945;46.010;8.946;2023-05-15T13:04:44;1.65;;;0.90;;
19595;SDS011;9945;46.010;8.946;2023-05-15T13:07:13;1.30;;;0.82;;
19595;SDS011;9945;46.010;8.946;2023-05-15T13:09:42;0.80;;;0.80;;
19595;SDS011;9945;46.010;8.946;2023-05-15T13:12:10;0.63;;;0.63;;
19595;SDS011;9945;46.010;8.946;2023-05-15T13:14:37;0.73;;;0.73;;
19595;SDS011;9945;46.010;8.946;2023-05-15T13:17:04;0.70;;;0.70;;
19595;SDS011;9945;46.010;8.946;2023-05-15T13:19:31;0.60;;;0.60;;
19595;SDS011;9945;46.010;8.946;2023-05-15T13:21:58;1.88;;;0.60;;
19595;SDS011;9945;46.010;8.946;2023-05-15T13:24:25;0.88;;;0.80;;
19595;SDS011;9945;46.010;8.946;2023-05-15T13:26:54;0.80;;;0.80;;
19595;SDS011;9945;46.010;8.946;2023-05-15T13:29:21;1.02;;;1.00;;
19595;SDS011;9945;46.010;8.946;2023-05-15T13:31:47;2.05;;;0.80;;
19595;SDS011;9945;46.010;8.946;2023-05-15T13:34:14;3.35;;;0.80;;
19595;SDS011;9945;46.010;8.946;2023-05-15T13:36:41;0.88;;;0.88;;
19595;SDS011;9945;46.010;8.946;2023-05-15T13:39:08;0.93;;;0.93;;
19595;SDS011;9945;46.010;8.946;2023-05-15T13:41:35;0.73;;;0.73;;
19595;SDS011;9945;46.010;8.946;2023-05-15T13:44:04;1.25;;;0.90;;
19595;SDS011;9945;46.010;8.946;2023-05-15T13:46:31;1.00;;;0.80;;
19595;SDS011;9945;46.010;8.946;2023-05-15T13:48:58;0.73;;;0.73;;
19595;SDS011;9945;46.010;8.946;2023-05-15T13:51:25;0.82;;;0.82;;
19595;SDS011;9945;46.010;8.946;2023-05-15T13:53:52;0.88;;;0.88;;
19595;SDS011;9945;46.010;8.946;2023-05-15T13:56:18;0.80;;;0.75;;
19595;SDS011;9945;46.010;8.946;2023-05-15T13:58:46;0.80;;;0.80;;
19595;SDS011;9945;46.010;8.946;2023-05-15T14:01:14;0.70;;;0.70;;
19595;SDS011;9945;46.010;8.946;2023-05-15T14:03:41;0.55;;;0.55;;
19595;SDS011;9945;46.010;8.946;2023-05-15T14:06:08;1.00;;;1.00;;
19595;SDS011;9945;46.010;8.946;2023-05-15T14:08:35;0.73;;;0.73;;
19595;SDS011;9945;46.010;8.946;2023-05-15T14:11:01;0.82;;;0.82;;
19595;SDS011;9945;46.010;8.946;2023-05-15T14:13:28;0.70;;;0.70;;
19595;SDS011;9945;46.010;8.946;2023-05-15T14:15:55;0.80;;;0.80;;
19595;SDS011;9945;46.010;8.946;2023-05-15T14:18:24;1.10;;;0.95;;
19595;SDS011;9945;46.010;8.946;2023-05-15T14:20:50;0.60;;;0.60;;
19595;SDS011;9945;46.010;8.946;2023-05-15T14:23:17;1.02;;;0.80;;
19595;SDS011;9945;46.010;8.946;2023-05-15T14:25:44;0.82;;;0.65;;
19595;SDS011;9945;46.010;8.946;2023-05-15T14:28:11;0.80;;;0.80;;
19595;SDS011;9945;46.010;8.946;2023-05-15T14:30:38;0.60;;;0.60;;
19595;SDS011;9945;46.010;8.946;2023-05-15T14:33:04;0.68;;;0.68;;
19595;SDS011;9945;46.010;8.946;2023-05-15T14:35:33;4.07;;;1.08;;
19595;SDS011;9945;46.010;8.946;2023-05-15T14:37:59;1.23;;;1.10;;
19595;SDS011;9945;46.010;8.946;2023-05-15T14:40:26;1.33;;;0.98;;
19595;SDS011;9945;46.010;8.946;2023-05-15T14:42:54;2.03;;;0.80;;
19595;SDS011;9945;46.010;8.946;2023-05-15T14:45:21;4.70;;;1.50;;
19595;SDS011;9945;46.010;8.946;2023-05-15T14:47:47;1.98;;;1.50;;
19595;SDS011;9945;46.010;8.946;2023-05-15T14:50:14;3.30;;;1.70;;
19595;SDS011;9945;46.010;8.946;2023-05-15T14:52:42;2.03;;;1.90;;
19595;SDS011;9945;46.010;8.946;2023-05-15T14:55:09;9.70;;;2.83;;
19595;SDS011;9945;46.010;8.946;2023-05-15T14:57:36;3.00;;;2.47;;
19595;SDS011;9945;46.010;8.946;2023-05-15T15:00:04;4.65;;;2.30;;
19595;SDS011;9945;46.010;8.946;2023-05-15T15:02:32;2.58;;;2.00;;
19595;SDS011;9945;46.010;8.946;2023-05-15T15:04:59;3.90;;;1.73;;
19595;SDS011;9945;46.010;8.946;2023-05-15T15:07:26;1.80;;;1.70;;
19595;SDS011;9945;46.010;8.946;2023-05-15T15:09:55;3.00;;;1.70;;
19595;SDS011;9945;46.010;8.946;2023-05-15T15:12:22;2.70;;;1.92;;
19595;SDS011;9945;46.010;8.946;2023-05-15T15:14:50;2.25;;;2.10;;
19595;SDS011;9945;46.010;8.946;2023-05-15T15:17:17;5.00;;;1.95;;